Time;durP1;ratioP1;P1;durP2;ratioP2;P2;SDS_P1;SDS_P2;PMS_P1;PMS_P2;Temp;Humidity;BMP_temperature;BMP_pressure;BME280_temperature;BME280_humidity;BME280_pressure;Samples;Min_cycle;Max_cycle;Signal;HPM_P1;HPM_P2
2024/02/05 00:01:40;;;;;;;20.00;2.72;;;11.30;99.90;;;;;;5033769;28;20079;-73
2024/02/05 00:04:05;;;;;;;22.52;2.92;;;11.30;99.90;;;;;;5050682;28;20045;-73
2024/02/05 00:06:31;;;;;;;26.30;3.00;;;11.30;99.90;;;;;;5053457;28;20064;-73
2024/02/05 00:08:57;;;;;;;24.60;3.97;;;11.30;99.90;;;;;;5035712;28;20026;-73
2024/02/05 00:11:23;;;;;;;23.98;2.88;;;11.20;99.90;;;;;;5030775;28;20032;-73
2024/02/05 00:13:48;;;;;;;22.50;2.58;;;11.20;99.90;;;;;;5032955;28;20373;-73
2024/02/05 00:16:14;;;;;;;18.42;2.08;;;11.20;99.90;;;;;;5033281;28;20033;-73
2024/02/05 00:18:40;;;;;;;21.33;2.63;;;11.20;99.90;;;;;;5033213;28;20029;-73
2024/02/05 00:21:05;;;;;;;27.77;3.65;;;11.20;99.90;;;;;;5033021;28;20029;-73
2024/02/05 00:23:31;;;;;;;26.75;3.45;;;11.20;99.90;;;;;;5042690;28;20047;-73
2024/02/05 00:25:57;;;;;;;24.02;3.40;;;11.20;99.90;;;;;;5038566;28;20029;-73
2024/02/05 00:28:22;;;;;;;20.15;3.28;;;11.20;99.90;;;;;;5032165;28;20029;-73
2024/02/05 00:30:50;;;;;;;17.77;2.95;;;11.20;99.90;;;;;;5032858;28;20021;-73
2024/02/05 00:33:16;;;;;;;26.25;3.58;;;11.10;99.90;;;;;;5032961;28;20029;-73
2024/02/05 00:35:42;;;;;;;19.60;3.03;;;11.10;99.90;;;;;;5032410;28;20033;-74
2024/02/05 00:38:07;;;;;;;26.50;2.95;;;11.10;99.90;;;;;;5032710;28;20098;-73
2024/02/05 00:40:34;;;;;;;27.10;3.42;;;11.10;99.90;;;;;;5032825;28;20079;-73
2024/02/05 00:42:59;;;;;;;28.33;3.72;;;11.10;99.90;;;;;;5041441;28;20048;-73
2024/02/05 00:45:25;;;;;;;26.58;4.22;;;11.10;99.90;;;;;;5050682;28;20118;-73
2024/02/05 00:47:51;;;;;;;28.52;3.88;;;11.10;99.90;;;;;;5039167;28;20049;-73
2024/02/05 00:50:16;;;;;;;18.75;3.42;;;11.10;99.90;;;;;;5032491;28;20022;-73
2024/02/05 00:52:42;;;;;;;25.98;3.80;;;11.00;99.90;;;;;;5032068;28;20118;-73
2024/02/05 00:55:08;;;;;;;26.10;3.47;;;11.10;99.90;;;;;;5032068;28;20052;-74
2024/02/05 00:57:34;;;;;;;19.67;2.83;;;11.00;99.90;;;;;;5032294;28;20033;-73
2024/02/05 00:59:59;;;;;;;30.23;3.58;;;11.00;99.90;;;;;;5032082;28;20021;-73
2024/02/05 01:02:25;;;;;;;25.20;3.58;;;11.00;99.90;;;;;;5032467;28;20108;-73
2024/02/05 01:04:51;;;;;;;28.27;3.33;;;11.00;99.90;;;;;;5031872;28;20029;-73
2024/02/05 01:07:18;;;;;;;27.73;4.32;;;11.00;99.90;;;;;;5032268;28;20032;-73
2024/02/05 01:09:44;;;;;;;29.42;4.32;;;10.90;99.90;;;;;;5031454;28;20478;-74
2024/02/05 01:12:10;;;;;;;23.42;4.18;;;10.90;99.90;;;;;;5031804;28;20087;-74
2024/02/05 01:14:35;;;;;;;25.35;3.40;;;10.90;99.90;;;;;;5032268;28;20091;-74
2024/02/05 01:17:02;;;;;;;28.17;4.25;;;10.80;99.90;;;;;;5031782;28;20112;-74
2024/02/05 01:19:28;;;;;;;24.38;3.20;;;10.80;99.90;;;;;;5031759;28;20021;-75
2024/02/05 01:21:54;;;;;;;21.35;4.13;;;10.70;99.90;;;;;;5033840;28;20032;-73
2024/02/05 01:24:19;;;;;;;22.85;3.60;;;10.70;99.90;;;;;;5050395;28;20033;-73
2024/02/05 01:26:45;;;;;;;20.25;3.38;;;10.60;99.90;;;;;;5037073;28;20022;-73
2024/02/05 01:29:10;;;;;;;23.17;2.97;;;10.50;99.90;;;;;;5031725;28;20037;-73
2024/02/05 01:31:36;;;;;;;28.95;4.50;;;10.40;99.90;;;;;;5031892;28;20029;-73
2024/02/05 01:34:02;;;;;;;24.08;4.88;;;10.40;99.90;;;;;;5039070;28;20496;-73
2024/02/05 01:36:28;;;;;;;27.20;4.45;;;10.30;99.90;;;;;;5036744;28;20025;-73
2024/02/05 01:38:54;;;;;;;30.50;3.85;;;10.30;99.90;;;;;;5051208;28;20066;-73
2024/02/05 01:41:21;;;;;;;28.00;4.32;;;10.20;99.90;;;;;;5031623;28;20021;-74
2024/02/05 01:43:47;;;;;;;31.50;4.53;;;10.10;99.90;;;;;;5031663;28;20378;-73
2024/02/05 01:46:23;;;;;;;23.08;3.38;;;10.10;99.90;;;;;;5031630;28;20025;-73
2024/02/05 01:48:59;;;;;;;32.53;4.53;;;10.10;99.90;;;;;;5030953;28;20037;-74
2024/02/05 01:51:25;;;;;;;24.02;3.83;;;10.00;99.90;;;;;;5033478;28;20030;-73
2024/02/05 01:53:52;;;;;;;32.40;4.03;;;9.90;99.90;;;;;;5031080;28;20066;-73
2024/02/05 01:56:32;;;;;;;28.23;4.13;;;10.00;99.90;;;;;;5031285;28;20033;-73
2024/02/05 01:59:00;;;;;;;25.67;4.13;;;9.90;99.90;;;;;;5030903;28;20024;-73
2024/02/05 02:01:28;;;;;;;24.40;3.47;;;9.90;99.90;;;;;;5031477;28;20022;-73
2024/02/05 02:03:55;;;;;;;22.73;4.80;;;9.80;99.90;;;;;;5030855;28;20025;-73
2024/02/05 02:06:22;;;;;;;28.77;3.65;;;9.80;99.90;;;;;;5031078;28;20494;-73
2024/02/05 02:08:49;;;;;;;27.05;3.80;;;9.80;99.90;;;;;;5031943;28;20378;-73
2024/02/05 02:11:15;;;;;;;27.73;3.67;;;9.80;99.90;;;;;;5031036;28;20018;-73
2024/02/05 02:13:41;;;;;;;25.30;4.07;;;9.80;99.90;;;;;;5031379;28;20033;-73
2024/02/05 02:16:17;;;;;;;29.77;4.88;;;9.80;99.90;;;;;;5031214;28;20037;-73
2024/02/05 02:18:48;;;;;;;27.65;4.57;;;9.80;99.90;;;;;;5031180;28;20165;-73
2024/02/05 02:21:15;;;;;;;23.77;3.95;;;9.80;99.90;;;;;;5029379;28;20064;-73
2024/02/05 02:23:43;;;;;;;26.55;4.38;;;9.80;99.90;;;;;;5031311;28;20017;-73
2024/02/05 02:26:09;;;;;;;22.90;4.35;;;9.90;99.90;;;;;;5031136;28;20029;-73
2024/02/05 02:28:35;;;;;;;25.35;3.53;;;9.80;99.90;;;;;;5031224;28;20024;-73
2024/02/05 02:31:02;;;;;;;32.88;6.13;;;9.90;99.90;;;;;;5046880;28;20909;-73
2024/02/05 02:33:55;;;;;;;36.42;4.85;;;9.90;99.90;;;;;;5032689;28;20021;-73
2024/02/05 02:36:40;;;;;;;29.00;6.60;;;9.90;99.90;;;;;;5035070;28;20457;-73
2024/02/05 02:39:19;;;;;;;32.00;5.47;;;9.90;99.90;;;;;;5034726;28;20053;-73
2024/02/05 02:41:48;;;;;;;27.77;5.18;;;10.00;99.90;;;;;;5046833;28;20022;-73
2024/02/05 02:44:16;;;;;;;30.25;6.53;;;10.00;99.90;;;;;;5034562;28;20026;-73
2024/02/05 02:46:42;;;;;;;31.65;5.97;;;10.00;99.90;;;;;;5034507;28;20025;-73
2024/02/05 02:49:08;;;;;;;31.10;5.13;;;10.00;99.90;;;;;;5034645;28;20450;-73
2024/02/05 02:51:34;;;;;;;30.70;4.50;;;10.10;99.90;;;;;;5047907;28;20084;-73
2024/02/05 02:54:00;;;;;;;27.40;5.20;;;10.00;99.90;;;;;;5048334;28;20508;-73
2024/02/05 02:56:26;;;;;;;21.55;4.88;;;10.00;99.90;;;;;;5034395;28;20029;-73
2024/02/05 02:58:51;;;;;;;26.33;5.32;;;10.00;99.90;;;;;;5033954;28;20029;-73
2024/02/05 03:01:17;;;;;;;31.30;5.75;;;10.00;99.90;;;;;;5034722;28;20036;-73
2024/02/05 03:03:42;;;;;;;37.45;5.20;;;10.10;99.90;;;;;;5033872;28;20473;-74
2024/02/05 03:06:08;;;;;;;25.55;4.95;;;10.10;99.90;;;;;;5034283;28;20108;-73
2024/02/05 03:08:33;;;;;;;27.35;5.57;;;10.10;99.90;;;;;;5035444;28;20036;-73
2024/02/05 03:10:59;;;;;;;39.08;7.20;;;10.10;99.90;;;;;;5053076;28;20021;-73
2024/02/05 03:13:25;;;;;;;33.03;5.25;;;10.10;99.90;;;;;;5034459;28;20025;-73
2024/02/05 03:15:50;;;;;;;22.65;3.67;;;10.10;99.90;;;;;;5033864;28;20486;-73
2024/02/05 03:18:16;;;;;;;31.80;5.25;;;10.10;99.90;;;;;;5034475;28;20036;-73
2024/02/05 03:20:42;;;;;;;29.77;4.63;;;10.10;99.90;;;;;;5033444;28;20388;-73
2024/02/05 03:23:09;;;;;;;32.97;6.40;;;10.10;99.90;;;;;;5033823;28;20068;-73
2024/02/05 03:25:35;;;;;;;29.08;4.47;;;10.10;99.90;;;;;;5034139;28;20022;-73
2024/02/05 03:28:01;;;;;;;31.50;5.13;;;10.10;99.90;;;;;;5033866;28;20075;-73
2024/02/05 03:30:34;;;;;;;34.67;6.15;;;10.10;99.90;;;;;;5039713;28;20094;-73
2024/02/05 03:33:01;;;;;;;33.42;5.32;;;10.10;99.90;;;;;;5033586;28;20065;-73
2024/02/05 03:35:27;;;;;;;34.45;5.88;;;10.10;99.90;;;;;;5034092;28;20124;-73
2024/02/05 03:37:54;;;;;;;26.05;4.68;;;10.10;99.90;;;;;;5036826;28;20024;-73
2024/02/05 03:40:23;;;;;;;27.17;4.97;;;10.10;99.90;;;;;;5041453;28;20025;-73
2024/02/05 03:42:49;;;;;;;32.38;6.00;;;10.10;99.90;;;;;;5033275;28;20477;-73
2024/02/05 03:45:16;;;;;;;27.58;5.65;;;10.10;99.90;;;;;;5033036;28;20112;-73
2024/02/05 03:47:42;;;;;;;27.70;5.13;;;10.10;99.90;;;;;;5033166;28;20041;-73
2024/02/05 03:50:10;;;;;;;23.95;4.18;;;10.10;99.90;;;;;;5051841;28;20503;-74
2024/02/05 03:52:40;;;;;;;26.35;4.47;;;10.10;99.90;;;;;;5053195;28;20154;-74
2024/02/05 03:55:06;;;;;;;32.10;6.25;;;10.10;99.90;;;;;;5036544;28;20029;-73
2024/02/05 03:57:36;;;;;;;26.73;5.25;;;10.20;99.90;;;;;;5033552;28;20010;-73
2024/02/05 04:00:02;;;;;;;33.47;6.07;;;10.20;99.90;;;;;;5032042;28;20034;-73
2024/02/05 04:02:28;;;;;;;36.40;5.97;;;10.20;99.90;;;;;;5033473;28;20022;-73
2024/02/05 04:04:56;;;;;;;32.83;6.25;;;10.20;99.90;;;;;;5025910;28;20073;-73
2024/02/05 04:07:23;;;;;;;42.20;6.15;;;10.20;99.90;;;;;;5033090;28;20501;-73
2024/02/05 04:09:48;;;;;;;26.50;4.68;;;10.20;99.90;;;;;;5032907;28;20440;-73
2024/02/05 04:12:14;;;;;;;25.13;5.97;;;10.20;99.90;;;;;;5032985;28;20021;-73
2024/02/05 04:14:39;;;;;;;25.70;4.85;;;10.10;99.90;;;;;;5033330;28;20037;-73
2024/02/05 04:17:09;;;;;;;36.22;5.55;;;10.20;99.90;;;;;;5032644;28;20022;-73
2024/02/05 04:19:35;;;;;;;30.48;6.00;;;10.20;99.90;;;;;;5013508;28;20094;-73
2024/02/05 04:22:01;;;;;;;34.55;4.80;;;10.10;99.90;;;;;;5034005;28;20381;-73
2024/02/05 04:24:27;;;;;;;34.50;6.93;;;10.10;99.90;;;;;;5052975;28;20033;-73
2024/02/05 04:26:52;;;;;;;34.72;5.75;;;10.10;99.90;;;;;;5032889;28;20437;-74
2024/02/05 04:29:20;;;;;;;25.77;4.30;;;10.20;99.90;;;;;;5032758;28;20032;-73
2024/02/05 04:31:49;;;;;;;26.63;5.00;;;10.20;99.90;;;;;;5032575;28;20029;-73
2024/02/05 04:34:15;;;;;;;30.92;5.28;;;10.10;99.90;;;;;;5042870;28;20076;-73
2024/02/05 04:36:40;;;;;;;29.33;4.40;;;10.20;99.90;;;;;;5032636;28;20029;-73
2024/02/05 04:39:10;;;;;;;30.77;5.93;;;10.10;99.90;;;;;;5032540;28;20033;-73
2024/02/05 04:41:38;;;;;;;29.90;4.75;;;10.20;99.90;;;;;;5032599;28;20112;-73
2024/02/05 04:44:04;;;;;;;31.27;4.80;;;10.20;99.90;;;;;;5045011;28;20025;-73
2024/02/05 04:46:30;;;;;;;26.25;4.30;;;10.20;99.90;;;;;;5037001;28;20025;-73
2024/02/05 04:48:55;;;;;;;21.83;4.07;;;10.20;99.90;;;;;;5031677;28;20103;-73
2024/02/05 04:51:21;;;;;;;21.25;4.10;;;10.20;99.90;;;;;;5032568;28;20022;-73
2024/02/05 04:53:47;;;;;;;28.45;5.03;;;10.20;99.90;;;;;;5038791;28;20025;-73
2024/02/05 04:56:12;;;;;;;30.15;4.60;;;10.10;99.90;;;;;;5052008;28;20041;-73
2024/02/05 04:58:38;;;;;;;27.67;4.85;;;10.20;99.90;;;;;;5033768;28;20028;-73
2024/02/05 05:01:04;;;;;;;20.52;3.90;;;10.10;99.90;;;;;;5032598;28;20474;-73
2024/02/05 05:03:33;;;;;;;24.65;3.88;;;10.10;99.90;;;;;;5032137;28;20485;-73
2024/02/05 05:05:59;;;;;;;26.63;5.43;;;10.10;99.90;;;;;;5031577;28;20040;-73
2024/02/05 05:08:25;;;;;;;22.98;4.93;;;10.10;99.90;;;;;;5032128;28;20461;-73
2024/02/05 05:10:51;;;;;;;23.52;4.78;;;10.20;99.90;;;;;;5033814;28;20093;-73
2024/02/05 05:13:16;;;;;;;24.08;4.47;;;10.20;99.90;;;;;;5052120;28;20025;-73
2024/02/05 05:15:42;;;;;;;32.70;4.78;;;10.10;99.90;;;;;;5043165;28;20091;-72
2024/02/05 05:18:08;;;;;;;30.05;5.28;;;10.10;99.90;;;;;;5032115;28;20079;-72
2024/02/05 05:20:34;;;;;;;25.50;4.38;;;10.10;99.90;;;;;;5031722;28;20027;-72
2024/02/05 05:23:00;;;;;;;22.30;3.90;;;10.10;99.90;;;;;;5047428;28;20033;-72
2024/02/05 05:25:26;;;;;;;25.08;4.57;;;10.10;99.90;;;;;;5044995;28;20037;-73
2024/02/05 05:27:51;;;;;;;21.73;4.50;;;10.10;99.90;;;;;;5031556;28;20083;-73
2024/02/05 05:30:17;;;;;;;20.23;4.43;;;10.10;99.90;;;;;;5031843;28;20026;-72
2024/02/05 05:32:42;;;;;;;30.17;5.95;;;10.10;99.90;;;;;;5031425;28;20034;-72
2024/02/05 05:35:08;;;;;;;29.27;5.15;;;10.00;99.90;;;;;;5031671;28;20116;-72
2024/02/05 05:37:33;;;;;;;29.35;5.22;;;10.00;99.90;;;;;;5031721;28;20025;-72
2024/02/05 05:39:59;;;;;;;31.00;5.13;;;10.00;99.90;;;;;;5030104;28;20021;-73
2024/02/05 05:42:28;;;;;;;31.52;5.63;;;10.10;99.90;;;;;;5032585;28;20037;-72
2024/02/05 05:44:54;;;;;;;28.98;5.25;;;10.00;99.90;;;;;;5031302;28;20036;-72
2024/02/05 05:47:19;;;;;;;21.33;4.80;;;10.00;99.90;;;;;;5031399;28;20026;-72
2024/02/05 05:49:45;;;;;;;24.23;4.57;;;10.00;99.90;;;;;;5031167;28;20026;-72
2024/02/05 05:52:11;;;;;;;31.50;6.97;;;10.00;99.90;;;;;;5031582;28;20040;-72
2024/02/05 05:54:37;;;;;;;25.33;4.35;;;10.00;99.90;;;;;;5049570;28;20130;-73
2024/02/05 05:57:02;;;;;;;30.92;4.63;;;10.00;99.90;;;;;;5031289;28;20021;-72
2024/02/05 05:59:28;;;;;;;26.08;4.45;;;10.00;99.90;;;;;;5030375;28;20076;-72
2024/02/05 06:01:54;;;;;;;24.35;4.57;;;10.00;99.90;;;;;;5024090;28;20378;-73
2024/02/05 06:04:20;;;;;;;26.98;5.50;;;10.00;99.90;;;;;;5042319;28;20036;-73
2024/02/05 06:06:45;;;;;;;30.10;5.20;;;10.00;99.90;;;;;;5050890;28;20025;-73
2024/02/05 06:09:17;;;;;;;28.95;5.63;;;10.00;99.90;;;;;;5031787;28;20029;-73
2024/02/05 06:11:43;;;;;;;21.63;4.30;;;10.00;99.90;;;;;;5030922;28;20021;-72
2024/02/05 06:14:08;;;;;;;24.02;4.20;;;10.00;99.90;;;;;;5038794;28;20085;-73
2024/02/05 06:16:34;;;;;;;30.15;4.20;;;10.00;99.90;;;;;;5051307;28;20044;-72
2024/02/05 06:18:59;;;;;;;25.90;4.22;;;10.00;99.90;;;;;;5031474;28;20029;-73
2024/02/05 06:21:25;;;;;;;30.42;4.55;;;10.00;99.90;;;;;;5031125;28;20029;-73
2024/02/05 06:23:51;;;;;;;23.65;4.53;;;10.00;99.90;;;;;;5047089;28;20028;-73
2024/02/05 06:26:16;;;;;;;20.30;4.22;;;10.00;99.90;;;;;;5051142;28;20045;-73
2024/02/05 06:28:43;;;;;;;22.50;3.63;;;9.90;99.90;;;;;;5033056;28;20033;-73
2024/02/05 06:31:11;;;;;;;29.15;5.07;;;9.90;99.90;;;;;;5031293;28;20057;-72
2024/02/05 06:33:37;;;;;;;28.42;5.32;;;9.90;99.90;;;;;;5041621;28;20072;-73
2024/02/05 06:36:03;;;;;;;28.95;5.05;;;9.90;99.90;;;;;;5034311;28;20033;-73
2024/02/05 06:38:29;;;;;;;26.75;5.28;;;9.90;99.90;;;;;;5030878;28;20025;-72
2024/02/05 06:40:55;;;;;;;25.52;6.38;;;9.90;99.90;;;;;;5030622;28;20410;-72
2024/02/05 06:43:20;;;;;;;18.20;4.65;;;9.90;99.90;;;;;;5035446;28;20052;-73
2024/02/05 06:45:46;;;;;;;18.55;3.60;;;9.90;99.90;;;;;;5042471;28;20025;-73
2024/02/05 06:48:11;;;;;;;24.90;5.50;;;9.90;99.90;;;;;;5030989;28;20037;-72
2024/02/05 06:50:37;;;;;;;27.73;5.85;;;9.90;99.90;;;;;;5030692;28;20057;-73
2024/02/05 06:53:03;;;;;;;24.70;5.18;;;9.90;99.90;;;;;;5030711;28;20109;-72
2024/02/05 06:55:31;;;;;;;25.30;3.78;;;9.90;99.90;;;;;;5030787;28;20040;-73
2024/02/05 06:57:56;;;;;;;29.55;4.68;;;9.90;99.90;;;;;;5030638;28;20022;-72
2024/02/05 07:00:22;;;;;;;28.20;4.88;;;9.90;99.90;;;;;;5026127;28;20395;-73
2024/02/05 07:02:49;;;;;;;31.92;4.82;;;9.90;99.90;;;;;;5024506;28;20029;-73
2024/02/05 07:05:16;;;;;;;33.00;5.57;;;9.90;99.90;;;;;;5030719;28;20497;-72
2024/02/05 07:07:42;;;;;;;21.27;4.00;;;9.90;99.90;;;;;;5030206;28;20025;-73
2024/02/05 07:10:08;;;;;;;31.58;5.25;;;9.90;99.90;;;;;;5031224;28;20030;-72
2024/02/05 07:12:33;;;;;;;23.58;4.65;;;9.90;99.90;;;;;;5030951;28;20040;-72
2024/02/05 07:14:59;;;;;;;22.60;4.93;;;9.90;99.90;;;;;;5029822;28;20029;-73
2024/02/05 07:17:34;;;;;;;25.27;4.43;;;9.90;99.90;;;;;;5030885;28;20028;-73
2024/02/05 07:20:03;;;;;;;25.55;4.25;;;9.90;99.90;;;;;;5030670;28;20029;-72
2024/02/05 07:22:29;;;;;;;29.27;4.63;;;9.90;99.90;;;;;;5034309;28;20017;-72
2024/02/05 07:24:55;;;;;;;22.85;5.15;;;9.90;99.90;;;;;;5041358;28;20030;-73
2024/02/05 07:27:26;;;;;;;26.63;5.45;;;9.90;99.90;;;;;;5033856;28;20030;-73
2024/02/05 07:29:52;;;;;;;21.13;4.97;;;9.80;99.90;;;;;;5034288;28;20146;-73
2024/02/05 07:32:18;;;;;;;20.60;5.18;;;9.80;99.90;;;;;;5033931;28;20026;-73
2024/02/05 07:34:45;;;;;;;24.05;4.80;;;9.80;99.90;;;;;;5041663;28;20132;-72
2024/02/05 07:37:11;;;;;;;30.58;5.68;;;9.80;99.90;;;;;;5043076;28;20029;-72
2024/02/05 07:39:37;;;;;;;37.35;6.47;;;9.80;99.90;;;;;;5034010;28;20031;-72
2024/02/05 07:42:03;;;;;;;22.42;5.75;;;9.90;99.90;;;;;;5035721;28;20010;-73
2024/02/05 07:44:29;;;;;;;27.58;6.18;;;9.80;99.90;;;;;;5047027;28;20452;-72
2024/02/05 07:46:54;;;;;;;32.03;6.00;;;9.80;99.90;;;;;;5033354;28;20053;-73
2024/02/05 07:49:20;;;;;;;25.30;5.00;;;9.80;99.90;;;;;;5033462;28;20555;-72
2024/02/05 07:51:46;;;;;;;24.15;5.10;;;9.80;99.90;;;;;;5033077;28;20535;-73
2024/02/05 07:54:15;;;;;;;23.52;5.05;;;9.80;99.90;;;;;;5049909;28;20554;-72
2024/02/05 07:56:42;;;;;;;28.35;5.72;;;9.80;99.90;;;;;;5049334;28;20447;-72
2024/02/05 07:59:08;;;;;;;33.50;7.30;;;9.80;99.90;;;;;;5033474;28;20044;-73
2024/02/05 08:01:34;;;;;;;36.55;5.85;;;9.80;99.90;;;;;;5033298;28;20029;-72
2024/02/05 08:03:59;;;;;;;27.20;5.25;;;9.80;99.90;;;;;;5033180;28;20025;-72
2024/02/05 08:06:28;;;;;;;27.35;6.60;;;9.80;99.90;;;;;;5033561;28;20026;-72
2024/02/05 08:08:55;;;;;;;20.92;5.85;;;9.80;99.90;;;;;;5032987;28;20428;-72
2024/02/05 08:11:20;;;;;;;27.80;6.53;;;9.80;99.90;;;;;;5039463;28;20057;-73
2024/02/05 08:13:46;;;;;;;32.47;8.15;;;9.80;99.90;;;;;;5032940;28;20050;-73
2024/02/05 08:16:12;;;;;;;27.90;5.95;;;9.80;99.90;;;;;;5033084;28;20036;-73
2024/02/05 08:18:37;;;;;;;32.35;7.88;;;9.80;99.90;;;;;;5031993;28;20022;-73
2024/02/05 08:21:04;;;;;;;39.30;8.32;;;9.80;99.90;;;;;;5032609;28;20513;-73
2024/02/05 08:23:30;;;;;;;22.30;7.60;;;9.80;99.90;;;;;;5032997;28;20029;-72
2024/02/05 08:25:56;;;;;;;25.75;8.23;;;9.80;99.90;;;;;;5042805;28;20389;-73
2024/02/05 08:28:21;;;;;;;27.13;8.80;;;9.80;99.90;;;;;;5051722;28;20021;-73
2024/02/05 08:30:47;;;;;;;41.67;10.40;;;9.80;99.90;;;;;;5032756;28;20029;-72
2024/02/05 08:33:13;;;;;;;30.95;10.35;;;9.80;99.90;;;;;;5039648;28;20083;-72
2024/02/05 08:35:40;;;;;;;32.67;9.82;;;9.80;99.90;;;;;;5032818;28;20418;-72
2024/02/05 08:38:06;;;;;;;35.70;8.43;;;9.90;99.90;;;;;;5032476;28;20017;-73
2024/02/05 08:40:32;;;;;;;41.60;10.38;;;9.90;99.90;;;;;;5032728;28;20044;-72
2024/02/05 08:42:57;;;;;;;27.67;8.85;;;9.90;99.90;;;;;;5046804;28;20020;-72
2024/02/05 08:45:23;;;;;;;30.75;9.88;;;9.90;99.90;;;;;;5033741;28;20351;-73
2024/02/05 08:47:50;;;;;;;31.00;8.88;;;9.90;99.90;;;;;;5032109;28;20124;-73
2024/02/05 08:50:16;;;;;;;33.03;8.93;;;9.90;99.90;;;;;;5032583;28;20030;-72
2024/02/05 08:52:42;;;;;;;26.63;7.88;;;9.90;99.90;;;;;;5040689;28;20044;-73
2024/02/05 08:55:08;;;;;;;24.35;8.05;;;9.90;99.90;;;;;;5037131;28;20119;-73
2024/02/05 08:57:34;;;;;;;26.13;7.75;;;9.90;99.90;;;;;;5032233;28;20030;-72
2024/02/05 09:00:00;;;;;;;25.02;7.10;;;10.00;99.90;;;;;;5031939;28;20173;-72
2024/02/05 09:02:26;;;;;;;34.25;8.27;;;10.00;99.90;;;;;;5031648;28;20032;-73
2024/02/05 09:04:52;;;;;;;30.45;7.13;;;10.00;99.90;;;;;;5031926;28;20397;-72
2024/02/05 09:07:18;;;;;;;33.40;6.35;;;10.10;99.90;;;;;;5042156;28;20033;-72
2024/02/05 09:09:44;;;;;;;24.92;6.72;;;10.00;99.90;;;;;;5048520;28;20025;-72
2024/02/05 09:12:09;;;;;;;28.90;6.60;;;10.10;99.90;;;;;;5044005;28;20025;-72
2024/02/05 09:14:35;;;;;;;30.67;6.32;;;10.10;99.90;;;;;;5031994;28;20461;-73
2024/02/05 09:17:01;;;;;;;23.83;6.80;;;10.10;99.90;;;;;;5031442;28;20034;-72
2024/02/05 09:19:26;;;;;;;21.92;5.00;;;10.10;99.90;;;;;;5031991;28;20017;-72
2024/02/05 09:21:53;;;;;;;28.00;5.43;;;10.10;99.90;;;;;;5037886;28;20029;-72
2024/02/05 09:24:19;;;;;;;20.98;4.97;;;10.10;99.90;;;;;;5047179;28;20064;-72
2024/02/05 09:26:44;;;;;;;31.17;6.22;;;10.10;99.90;;;;;;5030476;28;20481;-73
2024/02/05 09:29:10;;;;;;;25.50;5.53;;;10.00;99.90;;;;;;5031849;28;20022;-73
2024/02/05 09:31:35;;;;;;;28.02;5.18;;;10.10;99.90;;;;;;5031894;28;20022;-73
2024/02/05 09:34:01;;;;;;;23.50;4.22;;;10.10;99.90;;;;;;5048985;28;20087;-72
2024/02/05 09:36:27;;;;;;;31.42;4.32;;;10.10;99.90;;;;;;5041666;28;20044;-73
2024/02/05 09:38:53;;;;;;;24.13;4.40;;;10.10;99.90;;;;;;5031767;28;20030;-73
2024/02/05 09:41:24;;;;;;;30.77;5.03;;;10.10;99.90;;;;;;5031909;28;20470;-72
2024/02/05 09:43:50;;;;;;;20.25;5.00;;;10.10;99.90;;;;;;5022248;28;20021;-72
2024/02/05 09:46:21;;;;;;;16.63;4.15;;;10.10;99.90;;;;;;5031515;28;20035;-73
2024/02/05 09:48:49;;;;;;;28.25;4.63;;;10.00;99.90;;;;;;5030880;28;20076;-72
2024/02/05 09:51:17;;;;;;;28.48;4.65;;;10.10;99.90;;;;;;5031545;28;20025;-72
2024/02/05 09:53:43;;;;;;;24.80;5.70;;;10.20;99.90;;;;;;5036654;28;20017;-73
2024/02/05 09:56:12;;;;;;;38.00;6.63;;;10.10;99.90;;;;;;5043688;28;20063;-73
2024/02/05 09:58:37;;;;;;;33.28;5.65;;;10.20;99.90;;;;;;5031428;28;20386;-72
2024/02/05 10:01:03;;;;;;;25.55;6.43;;;10.20;99.90;;;;;;5030972;28;20029;-72
2024/02/05 10:03:30;;;;;;;33.30;8.23;;;10.20;99.90;;;;;;5039414;28;20478;-72
2024/02/05 10:06:00;;;;;;;32.45;7.75;;;10.30;99.90;;;;;;5030973;28;20067;-73
2024/02/05 10:08:28;;;;;;;27.98;5.78;;;10.30;99.90;;;;;;5031867;28;20373;-73
2024/02/05 10:10:56;;;;;;;25.85;4.70;;;10.30;99.90;;;;;;5031136;28;20105;-72
2024/02/05 10:13:22;;;;;;;28.65;5.38;;;10.30;99.90;;;;;;5031056;28;20551;-72
2024/02/05 10:15:48;;;;;;;24.25;5.65;;;10.30;99.90;;;;;;5030997;28;20379;-72
2024/02/05 10:18:14;;;;;;;29.48;7.70;;;10.20;99.90;;;;;;5031320;28;20037;-73
2024/02/05 10:20:40;;;;;;;38.28;8.07;;;10.20;99.90;;;;;;5031532;28;20103;-73
2024/02/05 10:23:06;;;;;;;26.95;8.05;;;10.30;99.90;;;;;;5032035;28;20045;-73
2024/02/05 10:25:33;;;;;;;23.40;6.63;;;10.30;99.90;;;;;;5040143;28;20470;-73
2024/02/05 10:28:03;;;;;;;21.52;5.28;;;10.30;99.90;;;;;;5030309;28;20022;-72
2024/02/05 10:30:30;;;;;;;34.08;6.90;;;10.40;99.90;;;;;;5031261;28;20033;-73
2024/02/05 10:33:00;;;;;;;17.95;6.03;;;10.40;99.90;;;;;;5037206;28;20052;-73
2024/02/05 10:35:27;;;;;;;25.65;7.00;;;10.40;99.90;;;;;;5032651;28;20132;-72
2024/02/05 10:37:54;;;;;;;26.55;8.20;;;10.50;99.90;;;;;;5030692;28;20014;-72
2024/02/05 10:40:20;;;;;;;28.27;9.23;;;10.50;99.90;;;;;;5031104;28;20026;-73
2024/02/05 10:42:46;;;;;;;24.75;9.80;;;10.50;99.90;;;;;;5047983;28;20115;-73
2024/02/05 10:45:14;;;;;;;31.83;9.95;;;10.50;99.90;;;;;;5038976;28;20033;-73
2024/02/05 10:47:41;;;;;;;26.42;9.85;;;10.50;99.90;;;;;;5031040;28;20128;-73
2024/02/05 10:50:10;;;;;;;33.70;10.05;;;10.50;99.90;;;;;;5031015;28;20076;-72
2024/02/05 10:52:36;;;;;;;27.48;9.60;;;10.40;99.90;;;;;;5043231;28;20033;-72
2024/02/05 10:55:06;;;;;;;32.85;11.00;;;10.50;99.90;;;;;;5044960;28;20124;-72
2024/02/05 10:57:36;;;;;;;28.20;10.65;;;10.50;99.90;;;;;;5050196;28;20090;-73
2024/02/05 11:00:02;;;;;;;25.58;9.40;;;10.50;99.90;;;;;;5034414;28;20087;-72
2024/02/05 11:02:32;;;;;;;29.48;9.82;;;10.50;99.90;;;;;;5033707;28;20104;-72
2024/02/05 11:05:00;;;;;;;24.50;8.27;;;10.60;99.90;;;;;;5034278;28;20025;-72
2024/02/05 11:07:31;;;;;;;33.10;9.95;;;10.60;99.90;;;;;;5034553;28;20490;-72
2024/02/05 11:10:01;;;;;;;23.35;8.43;;;10.70;99.90;;;;;;5034057;28;20144;-72
2024/02/05 11:12:31;;;;;;;29.17;8.10;;;10.70;99.90;;;;;;5043874;28;20115;-72
2024/02/05 11:15:10;;;;;;;26.27;8.13;;;10.80;99.90;;;;;;5034474;28;20175;-72
2024/02/05 11:17:37;;;;;;;30.33;8.38;;;10.90;99.90;;;;;;5034635;28;20410;-73
2024/02/05 11:20:08;;;;;;;21.88;8.75;;;11.00;99.90;;;;;;5033699;28;20175;-73
2024/02/05 11:22:37;;;;;;;29.50;7.43;;;11.00;99.90;;;;;;5041805;28;20036;-73
2024/02/05 11:25:04;;;;;;;20.50;6.97;;;11.10;99.90;;;;;;5053932;28;20029;-73
2024/02/05 11:27:31;;;;;;;30.88;8.40;;;11.10;99.90;;;;;;5043859;28;20382;-72
2024/02/05 11:29:56;;;;;;;28.73;7.95;;;11.10;99.90;;;;;;5033809;28;20435;-72
2024/02/05 11:32:34;;;;;;;25.27;7.60;;;11.00;99.90;;;;;;5033647;28;20105;-72
2024/02/05 11:35:00;;;;;;;27.90;7.28;;;11.10;99.90;;;;;;5034833;28;20064;-72
2024/02/05 11:37:27;;;;;;;26.70;6.80;;;11.20;99.90;;;;;;5034266;28;20512;-72
2024/02/05 11:39:55;;;;;;;19.90;6.03;;;11.30;99.90;;;;;;5033481;28;20064;-73
2024/02/05 11:42:21;;;;;;;27.05;6.43;;;11.30;99.90;;;;;;5033782;28;20385;-72
2024/02/05 11:44:47;;;;;;;19.77;5.95;;;11.40;99.90;;;;;;5039313;28;20021;-73
2024/02/05 11:47:13;;;;;;;24.52;6.07;;;11.50;99.90;;;;;;5033685;28;20065;-72
2024/02/05 11:49:39;;;;;;;27.23;7.10;;;11.50;99.90;;;;;;5033716;28;20508;-72
2024/02/05 11:52:05;;;;;;;18.23;5.45;;;11.50;99.90;;;;;;5033463;28;20021;-73
2024/02/05 11:54:32;;;;;;;21.63;5.72;;;11.50;99.90;;;;;;5046189;28;20017;-72
2024/02/05 11:56:58;;;;;;;25.83;5.93;;;11.50;99.90;;;;;;5048459;28;20155;-72
2024/02/05 11:59:24;;;;;;;23.55;6.03;;;11.50;99.90;;;;;;5032282;28;20121;-73
2024/02/05 12:01:50;;;;;;;27.08;6.63;;;11.40;99.90;;;;;;5033440;28;20148;-73
2024/02/05 12:04:17;;;;;;;20.80;5.78;;;11.40;99.90;;;;;;5040414;28;20028;-73
2024/02/05 12:06:45;;;;;;;24.73;6.38;;;11.40;99.90;;;;;;5049156;28;20025;-73
2024/02/05 12:09:12;;;;;;;19.58;5.43;;;11.50;99.90;;;;;;5033166;28;20109;-73
2024/02/05 12:11:41;;;;;;;18.13;5.18;;;11.60;99.90;;;;;;5033303;28;20075;-73
2024/02/05 12:14:08;;;;;;;26.25;6.18;;;11.60;99.90;;;;;;5035453;28;20460;-73
2024/02/05 12:16:34;;;;;;;21.00;6.18;;;11.60;99.90;;;;;;5045368;28;20406;-73
2024/02/05 12:18:59;;;;;;;27.98;6.10;;;11.70;99.90;;;;;;5032869;28;20045;-73
2024/02/05 12:21:27;;;;;;;20.98;7.00;;;11.80;99.90;;;;;;5033258;28;20029;-73
2024/02/05 12:23:53;;;;;;;21.35;6.60;;;11.80;99.90;;;;;;5041851;28;20013;-73
2024/02/05 12:26:19;;;;;;;27.08;6.40;;;11.90;99.90;;;;;;5036460;28;20105;-72
2024/02/05 12:28:50;;;;;;;29.58;5.68;;;11.90;99.90;;;;;;5032888;28;20128;-73
2024/02/05 12:31:20;;;;;;;31.50;6.40;;;11.90;99.90;;;;;;5032818;28;20073;-73
2024/02/05 12:33:59;;;;;;;22.75;5.10;;;11.90;99.90;;;;;;5036811;28;20067;-73
2024/02/05 12:36:36;;;;;;;24.23;5.85;;;11.90;99.90;;;;;;5032858;28;20083;-72